sensor_id;sensor_type;location;lat;lon;timestamp;temperature;humidity
37874;DHT22;23709;48.078;11.684;2023-04-24T00:00:47;10.30;99.90
37874;DHT22;23709;48.078;11.684;2023-04-24T00:03:19;10.30;99.90
37874;DHT22;23709;48.078;11.684;2023-04-24T00:05:53;10.30;99.90
37874;DHT22;23709;48.078;11.684;2023-04-24T00:08:26;10.20;99.90
37874;DHT22;23709;48.078;11.684;2023-04-24T00:10:58;10.30;99.90
37874;DHT22;23709;48.078;11.684;2023-04-24T00:13:30;10.30;99.90
37874;DHT22;23709;48.078;11.684;2023-04-24T00:16:03;10.30;99.90
37874;DHT22;23709;48.078;11.684;2023-04-24T00:18:35;10.10;99.90
37874;DHT22;23709;48.078;11.684;2023-04-24T00:21:07;10.10;99.90
37874;DHT22;23709;48.078;11.684;2023-04-24T00:23:40;10.20;99.90
37874;DHT22;23709;48.078;11.684;2023-04-24T00:26:12;10.20;99.90
37874;DHT22;23709;48.078;11.684;2023-04-24T00:28:44;10.10;99.90
37874;DHT22;23709;48.078;11.684;2023-04-24T00:31:16;10.10;99.90
37874;DHT22;23709;48.078;11.684;2023-04-24T00:33:48;10.10;99.90
37874;DHT22;23709;48.078;11.684;2023-04-24T00:36:21;10.20;99.90
37874;DHT22;23709;48.078;11.684;2023-04-24T00:38:54;10.20;99.90
37874;DHT22;23709;48.078;11.684;2023-04-24T00:41:28;10.20;99.90
37874;DHT22;23709;48.078;11.684;2023-04-24T00:44:00;10.10;99.90
37874;DHT22;23709;48.078;11.684;2023-04-24T00:46:33;10.20;99.90
37874;DHT22;23709;48.078;11.684;2023-04-24T00:49:05;10.10;99.90
37874;DHT22;23709;48.078;11.684;2023-04-24T00:51:38;10.10;99.90
37874;DHT22;23709;48.078;11.684;2023-04-24T00:54:11;10.10;99.90
37874;DHT22;23709;48.078;11.684;2023-04-24T00:56:44;10.10;99.90
37874;DHT22;23709;48.078;11.684;2023-04-24T00:59:17;10.00;99.90
37874;DHT22;23709;48.078;11.684;2023-04-24T01:01:49;10.00;99.90
37874;DHT22;23709;48.078;11.684;2023-04-24T01:04:22;10.00;99.90
37874;DHT22;23709;48.078;11.684;2023-04-24T01:06:55;9.90;99.90
37874;DHT22;23709;48.078;11.684;2023-04-24T01:09:27;9.90;99.90
37874;DHT22;23709;48.078;11.684;2023-04-24T01:12:02;9.80;99.90
37874;DHT22;23709;48.078;11.684;2023-04-24T01:14:34;9.90;99.90
37874;DHT22;23709;48.078;11.684;2023-04-24T01:17:06;9.80;99.90
37874;DHT22;23709;48.078;11.684;2023-04-24T01:19:39;9.70;99.90
37874;DHT22;23709;48.078;11.684;2023-04-24T01:22:15;9.60;99.90
37874;DHT22;23709;48.078;11.684;2023-04-24T01:24:52;9.60;99.90
37874;DHT22;23709;48.078;11.684;2023-04-24T01:27:24;9.60;99.90
37874;DHT22;23709;48.078;11.684;2023-04-24T01:29:57;9.60;99.90
37874;DHT22;23709;48.078;11.684;2023-04-24T01:32:39;9.60;99.90
37874;DHT22;23709;48.078;11.684;2023-04-24T01:35:12;9.70;99.90
37874;DHT22;23709;48.078;11.684;2023-04-24T01:37:44;9.60;99.90
37874;DHT22;23709;48.078;11.684;2023-04-24T01:40:17;9.70;99.90
37874;DHT22;23709;48.078;11.684;2023-04-24T01:42:49;9.70;99.90
37874;DHT22;23709;48.078;11.684;2023-04-24T01:45:22;9.70;99.90
37874;DHT22;23709;48.078;11.684;2023-04-24T01:47:54;9.60;99.90
37874;DHT22;23709;48.078;11.684;2023-04-24T01:50:28;9.60;99.90
37874;DHT22;23709;48.078;11.684;2023-04-24T01:53:00;9.60;99.90
37874;DHT22;23709;48.078;11.684;2023-04-24T01:55:33;9.60;99.90
37874;DHT22;23709;48.078;11.684;2023-04-24T01:58:05;9.60;99.90
37874;DHT22;23709;48.078;11.684;2023-04-24T02:00:37;9.70;99.90
37874;DHT22;23709;48.078;11.684;2023-04-24T02:03:09;9.70;99.90
37874;DHT22;23709;48.078;11.684;2023-04-24T02:05:45;9.60;99.90
37874;DHT22;23709;48.078;11.684;2023-04-24T02:08:17;9.60;99.90
37874;DHT22;23709;48.078;11.684;2023-04-24T02:10:50;9.60;99.90
37874;DHT22;23709;48.078;11.684;2023-04-24T02:13:22;9.60;99.90
37874;DHT22;23709;48.078;11.684;2023-04-24T02:15:54;9.60;99.90
37874;DHT22;23709;48.078;11.684;2023-04-24T02:18:28;9.60;99.90
37874;DHT22;23709;48.078;11.684;2023-04-24T02:21:01;9.50;99.90
37874;DHT22;23709;48.078;11.684;2023-04-24T02:23:33;9.50;99.90
37874;DHT22;23709;48.078;11.684;2023-04-24T02:26:05;9.60;99.90
37874;DHT22;23709;48.078;11.684;2023-04-24T02:28:38;9.50;99.90
37874;DHT22;23709;48.078;11.684;2023-04-24T02:31:10;9.50;99.90
37874;DHT22;23709;48.078;11.684;2023-04-24T02:33:42;9.50;99.90
37874;DHT22;23709;48.078;11.684;2023-04-24T02:36:14;9.50;99.90
37874;DHT22;23709;48.078;11.684;2023-04-24T02:38:46;9.40;99.90
37874;DHT22;23709;48.078;11.684;2023-04-24T02:41:18;9.50;99.90
37874;DHT22;23709;48.078;11.684;2023-04-24T02:43:52;9.50;99.90
37874;DHT22;23709;48.078;11.684;2023-04-24T02:46:25;9.50;99.90
37874;DHT22;23709;48.078;11.684;2023-04-24T02:48:57;9.40;99.90
37874;DHT22;23709;48.078;11.684;2023-04-24T02:51:30;9.50;99.90
37874;DHT22;23709;48.078;11.684;2023-04-24T02:54:03;9.40;99.90
37874;DHT22;23709;48.078;11.684;2023-04-24T02:56:35;9.30;99.90
37874;DHT22;23709;48.078;11.684;2023-04-24T02:59:10;9.40;99.90
37874;DHT22;23709;48.078;11.684;2023-04-24T03:01:42;9.40;99.90
37874;DHT22;23709;48.078;11.684;2023-04-24T03:04:15;9.40;99.90
37874;DHT22;23709;48.078;11.684;2023-04-24T03:06:47;9.40;99.90
37874;DHT22;23709;48.078;11.684;2023-04-24T03:09:21;9.30;99.90
37874;DHT22;23709;48.078;11.684;2023-04-24T03:11:53;9.30;99.90
37874;DHT22;23709;48.078;11.684;2023-04-24T03:14:25;9.20;99.90
37874;DHT22;23709;48.078;11.684;2023-04-24T03:16:58;9.20;99.90
37874;DHT22;23709;48.078;11.684;2023-04-24T03:19:30;9.10;99.90
37874;DHT22;23709;48.078;11.684;2023-04-24T03:22:08;9.30;99.90
37874;DHT22;23709;48.078;11.684;2023-04-24T03:24:42;9.30;99.90
37874;DHT22;23709;48.078;11.684;2023-04-24T03:27:14;9.30;99.90
37874;DHT22;23709;48.078;11.684;2023-04-24T03:29:59;9.30;99.90
37874;DHT22;23709;48.078;11.684;2023-04-24T03:32:47;9.20;99.90
37874;DHT22;23709;48.078;11.684;2023-04-24T03:35:25;9.20;99.90
37874;DHT22;23709;48.078;11.684;2023-04-24T03:37:58;9.00;99.90
37874;DHT22;23709;48.078;11.684;2023-04-24T03:40:59;9.10;99.90
37874;DHT22;23709;48.078;11.684;2023-04-24T03:43:43;9.10;99.90
37874;DHT22;23709;48.078;11.684;2023-04-24T03:46:15;9.10;99.90
37874;DHT22;23709;48.078;11.684;2023-04-24T03:48:55;9.10;99.90
37874;DHT22;23709;48.078;11.684;2023-04-24T03:51:31;9.00;99.90
37874;DHT22;23709;48.078;11.684;2023-04-24T03:54:15;9.10;99.90
37874;DHT22;23709;48.078;11.684;2023-04-24T03:56:48;9.10;99.90
37874;DHT22;23709;48.078;11.684;2023-04-24T03:59:21;9.10;99.90
37874;DHT22;23709;48.078;11.684;2023-04-24T04:02:05;9.10;99.90
37874;DHT22;23709;48.078;11.684;2023-04-24T04:04:38;9.10;99.90
37874;DHT22;23709;48.078;11.684;2023-04-24T04:07:10;9.00;99.90
37874;DHT22;23709;48.078;11.684;2023-04-24T04:09:43;9.00;99.90
37874;DHT22;23709;48.078;11.684;2023-04-24T04:12:16;9.00;99.90
37874;DHT22;23709;48.078;11.684;2023-04-24T04:14:48;9.00;99.90
37874;DHT22;23709;48.078;11.684;2023-04-24T04:17:20;9.10;99.90
37874;DHT22;23709;48.078;11.684;2023-04-24T04:19:53;9.10;99.90
37874;DHT22;23709;48.078;11.684;2023-04-24T04:22:25;9.10;99.90
37874;DHT22;23709;48.078;11.684;2023-04-24T04:24:58;9.10;99.90
37874;DHT22;23709;48.078;11.684;2023-04-24T04:27:32;9.10;99.90
37874;DHT22;23709;48.078;11.684;2023-04-24T04:30:09;9.00;99.90
37874;DHT22;23709;48.078;11.684;2023-04-24T04:33:00;9.10;99.90
37874;DHT22;23709;48.078;11.684;2023-04-24T04:35:34;9.10;99.90
37874;DHT22;23709;48.078;11.684;2023-04-24T04:38:06;9.10;99.90
37874;DHT22;23709;48.078;11.684;2023-04-24T04:40:50;9.10;99.90
37874;DHT22;23709;48.078;11.684;2023-04-24T04:43:25;9.10;99.90
37874;DHT22;23709;48.078;11.684;2023-04-24T04:45:58;9.00;99.90
37874;DHT22;23709;48.078;11.684;2023-04-24T04:48:43;9.10;99.90
37874;DHT22;23709;48.078;11.684;2023-04-24T04:51:15;9.10;99.90
37874;DHT22;23709;48.078;11.684;2023-04-24T04:53:48;9.10;99.90
37874;DHT22;23709;48.078;11.684;2023-04-24T04:56:20;9.10;99.90
37874;DHT22;23709;48.078;11.684;2023-04-24T04:58:54;9.20;99.90
37874;DHT22;23709;48.078;11.684;2023-04-24T05:01:26;9.10;99.90
37874;DHT22;23709;48.078;11.684;2023-04-24T05:04:00;9.20;99.90
37874;DHT22;23709;48.078;11.684;2023-04-24T05:06:33;9.20;99.90
37874;DHT22;23709;48.078;11.684;2023-04-24T05:09:05;9.20;99.90
37874;DHT22;23709;48.078;11.684;2023-04-24T05:11:47;9.10;99.90
37874;DHT22;23709;48.078;11.684;2023-04-24T05:14:19;9.10;99.90
37874;DHT22;23709;48.078;11.684;2023-04-24T05:16:51;9.10;99.90
37874;DHT22;23709;48.078;11.684;2023-04-24T05:19:25;9.20;99.90
37874;DHT22;23709;48.078;11.684;2023-04-24T05:21:58;9.30;99.90
37874;DHT22;23709;48.078;11.684;2023-04-24T05:24:31;9.30;99.90
37874;DHT22;23709;48.078;11.684;2023-04-24T05:27:04;9.30;99.90
37874;DHT22;23709;48.078;11.684;2023-04-24T05:29:43;9.30;99.90
37874;DHT22;23709;48.078;11.684;2023-04-24T05:32:18;9.30;99.90
37874;DHT22;23709;48.078;11.684;2023-04-24T05:34:50;9.30;99.90
37874;DHT22;23709;48.078;11.684;2023-04-24T05:37:22;9.30;99.90
37874;DHT22;23709;48.078;11.684;2023-04-24T05:39:54;9.40;99.90
37874;DHT22;23709;48.078;11.684;2023-04-24T05:42:27;9.40;99.90
37874;DHT22;23709;48.078;11.684;2023-04-24T05:45:01;9.50;99.90
37874;DHT22;23709;48.078;11.684;2023-04-24T05:47:34;9.60;99.90
37874;DHT22;23709;48.078;11.684;2023-04-24T05:50:07;9.60;99.90
37874;DHT22;23709;48.078;11.684;2023-04-24T05:52:41;9.50;99.90
37874;DHT22;23709;48.078;11.684;2023-04-24T05:55:26;9.50;99.90
37874;DHT22;23709;48.078;11.684;2023-04-24T05:57:59;9.60;99.90
37874;DHT22;23709;48.078;11.684;2023-04-24T06:00:31;9.60;99.90
37874;DHT22;23709;48.078;11.684;2023-04-24T06:03:09;9.60;99.90
37874;DHT22;23709;48.078;11.684;2023-04-24T06:05:42;9.70;99.90
37874;DHT22;23709;48.078;11.684;2023-04-24T06:08:15;9.60;99.90
37874;DHT22;23709;48.078;11.684;2023-04-24T06:10:48;9.70;99.90
37874;DHT22;23709;48.078;11.684;2023-04-24T06:13:24;9.80;99.90
37874;DHT22;23709;48.078;11.684;2023-04-24T06:16:16;9.60;99.90
37874;DHT22;23709;48.078;11.684;2023-04-24T06:18:54;9.60;99.90
37874;DHT22;23709;48.078;11.684;2023-04-24T06:21:27;9.70;99.90
37874;DHT22;23709;48.078;11.684;2023-04-24T06:24:00;9.80;99.90
37874;DHT22;23709;48.078;11.684;2023-04-24T06:26:32;9.80;99.90
37874;DHT22;23709;48.078;11.684;2023-04-24T06:29:05;9.90;99.90
37874;DHT22;23709;48.078;11.684;2023-04-24T06:31:40;9.90;99.90
37874;DHT22;23709;48.078;11.684;2023-04-24T06:34:12;9.90;99.90
37874;DHT22;23709;48.078;11.684;2023-04-24T06:36:46;10.00;99.90
37874;DHT22;23709;48.078;11.684;2023-04-24T06:39:18;9.90;99.90
37874;DHT22;23709;48.078;11.684;2023-04-24T06:41:50;9.90;99.90
37874;DHT22;23709;48.078;11.684;2023-04-24T06:44:25;9.90;99.90
37874;DHT22;23709;48.078;11.684;2023-04-24T06:46:57;10.00;99.90
37874;DHT22;23709;48.078;11.684;2023-04-24T06:49:30;9.90;99.90
37874;DHT22;23709;48.078;11.684;2023-04-24T06:52:02;10.00;99.90
37874;DHT22;23709;48.078;11.684;2023-04-24T06:54:35;10.10;99.90
37874;DHT22;23709;48.078;11.684;2023-04-24T06:57:08;10.20;99.90
37874;DHT22;23709;48.078;11.684;2023-04-24T06:59:40;10.20;99.90
37874;DHT22;23709;48.078;11.684;2023-04-24T07:02:13;10.30;99.90
37874;DHT22;23709;48.078;11.684;2023-04-24T07:04:46;10.30;99.90
37874;DHT22;23709;48.078;11.684;2023-04-24T07:07:19;10.40;99.90
37874;DHT22;23709;48.078;11.684;2023-04-24T07:09:53;10.50;99.90
37874;DHT22;23709;48.078;11.684;2023-04-24T07:12:26;10.50;99.90
37874;DHT22;23709;48.078;11.684;2023-04-24T07:14:58;10.60;99.90
37874;DHT22;23709;48.078;11.684;2023-04-24T07:17:30;10.60;99.90
37874;DHT22;23709;48.078;11.684;2023-04-24T07:20:03;10.70;99.90
37874;DHT22;23709;48.078;11.684;2023-04-24T07:22:37;10.80;99.90
37874;DHT22;23709;48.078;11.684;2023-04-24T07:25:10;10.80;99.90
37874;DHT22;23709;48.078;11.684;2023-04-24T07:27:42;10.80;99.90
37874;DHT22;23709;48.078;11.684;2023-04-24T07:30:14;11.00;99.90
37874;DHT22;23709;48.078;11.684;2023-04-24T07:32:47;11.20;99.90
37874;DHT22;23709;48.078;11.684;2023-04-24T07:35:19;11.40;99.90
37874;DHT22;23709;48.078;11.684;2023-04-24T07:37:53;11.40;99.90
37874;DHT22;23709;48.078;11.684;2023-04-24T07:40:25;11.40;99.90
37874;DHT22;23709;48.078;11.684;2023-04-24T07:42:59;11.40;99.90
37874;DHT22;23709;48.078;11.684;2023-04-24T07:45:31;11.50;99.90
37874;DHT22;23709;48.078;11.684;2023-04-24T07:48:05;11.30;99.90
37874;DHT22;23709;48.078;11.684;2023-04-24T07:50:38;11.20;99.90
37874;DHT22;23709;48.078;11.684;2023-04-24T07:53:10;11.20;99.90
37874;DHT22;23709;48.078;11.684;2023-04-24T07:55:43;11.20;99.90
37874;DHT22;23709;48.078;11.684;2023-04-24T07:58:15;11.10;99.90
37874;DHT22;23709;48.078;11.684;2023-04-24T08:00:47;11.10;99.90
37874;DHT22;23709;48.078;11.684;2023-04-24T08:03:20;11.10;99.90
37874;DHT22;23709;48.078;11.684;2023-04-24T08:05:53;11.20;99.90
37874;DHT22;23709;48.078;11.684;2023-04-24T08:08:25;11.20;99.90
37874;DHT22;23709;48.078;11.684;2023-04-24T08:10:58;11.10;99.90
37874;DHT22;23709;48.078;11.684;2023-04-24T08:13:30;11.10;99.90
37874;DHT22;23709;48.078;11.684;2023-04-24T08:16:02;11.10;99.90
37874;DHT22;23709;48.078;11.684;2023-04-24T08:18:35;11.10;99.90
37874;DHT22;23709;48.078;11.684;2023-04-24T08:21:08;11.10;99.90
37874;DHT22;23709;48.078;11.684;2023-04-24T08:23:40;11.20;99.90
37874;DHT22;23709;48.078;11.684;2023-04-24T08:26:13;11.30;99.90
37874;DHT22;23709;48.078;11.684;2023-04-24T08:28:45;11.30;99.90
37874;DHT22;23709;48.078;11.684;2023-04-24T08:31:18;11.30;99.90
37874;DHT22;23709;48.078;11.684;2023-04-24T08:33:50;11.30;99.90
37874;DHT22;23709;48.078;11.684;2023-04-24T08:36:22;11.10;99.90
37874;DHT22;23709;48.078;11.684;2023-04-24T08:39:09;11.20;99.90
37874;DHT22;23709;48.078;11.684;2023-04-24T08:41:43;11.20;99.90
37874;DHT22;23709;48.078;11.684;2023-04-24T08:44:15;11.20;99.90
37874;DHT22;23709;48.078;11.684;2023-04-24T08:46:48;11.20;99.90
37874;DHT22;23709;48.078;11.684;2023-04-24T08:49:21;11.10;99.90
37874;DHT22;23709;48.078;11.684;2023-04-24T08:51:56;11.00;99.90
37874;DHT22;23709;48.078;11.684;2023-04-24T08:54:29;10.90;99.90
37874;DHT22;23709;48.078;11.684;2023-04-24T08:57:02;10.70;99.90
37874;DHT22;23709;48.078;11.684;2023-04-24T08:59:36;10.60;99.90
37874;DHT22;23709;48.078;11.684;2023-04-24T09:02:10;10.70;99.90
37874;DHT22;23709;48.078;11.684;2023-04-24T09:04:44;10.90;99.90
37874;DHT22;23709;48.078;11.684;2023-04-24T09:07:19;10.90;99.90
37874;DHT22;23709;48.078;11.684;2023-04-24T09:09:52;10.90;99.90
37874;DHT22;23709;48.078;11.684;2023-04-24T09:12:24;10.90;99.90
37874;DHT22;23709;48.078;11.684;2023-04-24T09:14:57;10.70;99.90
37874;DHT22;23709;48.078;11.684;2023-04-24T09:17:30;10.60;99.90
37874;DHT22;23709;48.078;11.684;2023-04-24T09:20:03;10.80;99.90
37874;DHT22;23709;48.078;11.684;2023-04-24T09:22:36;10.80;99.90
37874;DHT22;23709;48.078;11.684;2023-04-24T09:25:09;10.80;99.90
37874;DHT22;23709;48.078;11.684;2023-04-24T09:27:45;10.80;99.90
37874;DHT22;23709;48.078;11.684;2023-04-24T09:30:21;10.80;99.90
37874;DHT22;23709;48.078;11.684;2023-04-24T09:33:12;10.80;99.90
37874;DHT22;23709;48.078;11.684;2023-04-24T09:35:51;10.80;99.90
37874;DHT22;23709;48.078;11.684;2023-04-24T09:38:35;10.90;99.90
37874;DHT22;23709;48.078;11.684;2023-04-24T09:41:13;11.00;99.90
37874;DHT22;23709;48.078;11.684;2023-04-24T09:43:45;11.00;99.90
37874;DHT22;23709;48.078;11.684;2023-04-24T09:46:18;11.20;99.90
37874;DHT22;23709;48.078;11.684;2023-04-24T09:48:51;11.50;99.90
37874;DHT22;23709;48.078;11.684;2023-04-24T09:51:34;11.70;99.90
37874;DHT22;23709;48.078;11.684;2023-04-24T09:54:18;11.80;99.90
37874;DHT22;23709;48.078;11.684;2023-04-24T09:56:54;11.70;99.90
37874;DHT22;23709;48.078;11.684;2023-04-24T09:59:28;11.80;99.90
37874;DHT22;23709;48.078;11.684;2023-04-24T10:02:00;11.80;99.90
37874;DHT22;23709;48.078;11.684;2023-04-24T10:04:33;11.90;99.90
37874;DHT22;23709;48.078;11.684;2023-04-24T10:07:05;12.10;99.90
37874;DHT22;23709;48.078;11.684;2023-04-24T10:09:38;12.10;99.90
37874;DHT22;23709;48.078;11.684;2023-04-24T10:12:11;12.10;99.90
37874;DHT22;23709;48.078;11.684;2023-04-24T10:14:46;12.10;99.90
37874;DHT22;23709;48.078;11.684;2023-04-24T10:17:20;12.20;99.90
37874;DHT22;23709;48.078;11.684;2023-04-24T10:19:53;12.20;99.90
37874;DHT22;23709;48.078;11.684;2023-04-24T10:22:25;12.30;99.90
37874;DHT22;23709;48.078;11.684;2023-04-24T10:24:59;12.30;99.90
37874;DHT22;23709;48.078;11.684;2023-04-24T10:27:32;12.30;99.90
37874;DHT22;23709;48.078;11.684;2023-04-24T10:30:05;12.50;99.90
37874;DHT22;23709;48.078;11.684;2023-04-24T10:32:40;12.70;99.90
37874;DHT22;23709;48.078;11.684;2023-04-24T10:35:15;12.80;97.00
37874;DHT22;23709;48.078;11.684;2023-04-24T10:37:58;12.90;97.80
37874;DHT22;23709;48.078;11.684;2023-04-24T10:40:32;12.80;94.70
37874;DHT22;23709;48.078;11.684;2023-04-24T10:43:08;12.90;95.30
37874;DHT22;23709;48.078;11.684;2023-04-24T10:46:03;12.90;96.10
37874;DHT22;23709;48.078;11.684;2023-04-24T10:48:42;12.70;94.20
37874;DHT22;23709;48.078;11.684;2023-04-24T10:51:15;12.60;94.70
37874;DHT22;23709;48.078;11.684;2023-04-24T10:53:47;12.60;94.90
37874;DHT22;23709;48.078;11.684;2023-04-24T10:56:21;12.60;95.50
37874;DHT22;23709;48.078;11.684;2023-04-24T10:58:54;12.50;94.50
37874;DHT22;23709;48.078;11.684;2023-04-24T11:01:29;12.50;94.90
37874;DHT22;23709;48.078;11.684;2023-04-24T11:04:03;12.50;95.40
37874;DHT22;23709;48.078;11.684;2023-04-24T11:06:37;11.80;98.80
37874;DHT22;23709;48.078;11.684;2023-04-24T11:09:10;11.40;99.90
37874;DHT22;23709;48.078;11.684;2023-04-24T11:11:45;11.20;99.90
37874;DHT22;23709;48.078;11.684;2023-04-24T11:14:18;11.10;99.90
37874;DHT22;23709;48.078;11.684;2023-04-24T11:16:54;11.20;99.90
37874;DHT22;23709;48.078;11.684;2023-04-24T11:19:27;11.30;99.90
37874;DHT22;23709;48.078;11.684;2023-04-24T11:22:03;11.50;99.90
37874;DHT22;23709;48.078;11.684;2023-04-24T11:24:38;11.60;99.90
37874;DHT22;23709;48.078;11.684;2023-04-24T11:27:21;11.90;99.90
37874;DHT22;23709;48.078;11.684;2023-04-24T11:35:15;12.50;97.40
37874;DHT22;23709;48.078;11.684;2023-04-24T11:37:50;12.90;96.50
37874;DHT22;23709;48.078;11.684;2023-04-24T11:40:43;13.30;97.00
37874;DHT22;23709;48.078;11.684;2023-04-24T11:43:16;13.60;94.40
37874;DHT22;23709;48.078;11.684;2023-04-24T11:45:51;13.70;92.50
37874;DHT22;23709;48.078;11.684;2023-04-24T11:48:24;13.70;93.10
37874;DHT22;23709;48.078;11.684;2023-04-24T11:50:56;13.70;92.60
37874;DHT22;23709;48.078;11.684;2023-04-24T11:53:30;13.60;92.20
37874;DHT22;23709;48.078;11.684;2023-04-24T11:56:03;13.40;92.60
37874;DHT22;23709;48.078;11.684;2023-04-24T11:58:38;13.30;92.60
37874;DHT22;23709;48.078;11.684;2023-04-24T12:01:11;13.20;92.80
37874;DHT22;23709;48.078;11.684;2023-04-24T12:03:48;13.20;93.10
37874;DHT22;23709;48.078;11.684;2023-04-24T12:06:20;13.00;92.40
37874;DHT22;23709;48.078;11.684;2023-04-24T12:08:53;13.30;92.80
37874;DHT22;23709;48.078;11.684;2023-04-24T12:11:35;13.50;92.70
37874;DHT22;23709;48.078;11.684;2023-04-24T12:14:11;13.60;91.50
37874;DHT22;23709;48.078;11.684;2023-04-24T12:16:48;13.30;91.80
37874;DHT22;23709;48.078;11.684;2023-04-24T12:19:23;13.10;94.20
37874;DHT22;23709;48.078;11.684;2023-04-24T12:22:04;12.70;95.50
37874;DHT22;23709;48.078;11.684;2023-04-24T12:25:02;12.40;97.00
37874;DHT22;23709;48.078;11.684;2023-04-24T12:27:35;12.10;99.90
37874;DHT22;23709;48.078;11.684;2023-04-24T12:30:12;12.00;99.90
37874;DHT22;23709;48.078;11.684;2023-04-24T12:32:49;11.50;99.90
37874;DHT22;23709;48.078;11.684;2023-04-24T12:35:25;11.10;99.90
37874;DHT22;23709;48.078;11.684;2023-04-24T12:38:09;10.90;99.90
37874;DHT22;23709;48.078;11.684;2023-04-24T12:40:42;10.90;99.90
37874;DHT22;23709;48.078;11.684;2023-04-24T12:43:19;11.10;99.90
37874;DHT22;23709;48.078;11.684;2023-04-24T12:45:52;11.20;99.90
37874;DHT22;23709;48.078;11.684;2023-04-24T12:48:29;11.30;99.90
37874;DHT22;23709;48.078;11.684;2023-04-24T12:51:01;11.20;99.90
37874;DHT22;23709;48.078;11.684;2023-04-24T12:53:34;11.30;99.90
37874;DHT22;23709;48.078;11.684;2023-04-24T12:56:06;11.40;99.90
37874;DHT22;23709;48.078;11.684;2023-04-24T12:58:38;11.40;99.90
37874;DHT22;23709;48.078;11.684;2023-04-24T13:01:11;11.30;99.90
37874;DHT22;23709;48.078;11.684;2023-04-24T13:03:43;11.00;99.90
37874;DHT22;23709;48.078;11.684;2023-04-24T13:06:16;11.00;99.90
37874;DHT22;23709;48.078;11.684;2023-04-24T13:08:48;10.90;99.90
37874;DHT22;23709;48.078;11.684;2023-04-24T13:11:21;11.10;99.90
37874;DHT22;23709;48.078;11.684;2023-04-24T13:13:54;11.30;99.90
37874;DHT22;23709;48.078;11.684;2023-04-24T13:16:27;11.20;99.90
37874;DHT22;23709;48.078;11.684;2023-04-24T13:18:59;11.40;99.90
37874;DHT22;23709;48.078;11.684;2023-04-24T13:21:31;11.50;99.90
37874;DHT22;23709;48.078;11.684;2023-04-24T13:24:04;11.80;99.90
37874;DHT22;23709;48.078;11.684;2023-04-24T13:26:37;12.10;99.90
37874;DHT22;23709;48.078;11.684;2023-04-24T13:29:10;12.50;99.90
37874;DHT22;23709;48.078;11.684;2023-04-24T13:31:43;12.70;99.90
37874;DHT22;23709;48.078;11.684;2023-04-24T13:34:15;12.90;99.90
37874;DHT22;23709;48.078;11.684;2023-04-24T13:36:48;12.80;99.90
37874;DHT22;23709;48.078;11.684;2023-04-24T13:39:23;12.90;99.90
37874;DHT22;23709;48.078;11.684;2023-04-24T13:41:57;12.80;99.90
37874;DHT22;23709;48.078;11.684;2023-04-24T13:44:29;12.40;99.00
37874;DHT22;23709;48.078;11.684;2023-04-24T13:47:02;12.30;99.90
37874;DHT22;23709;48.078;11.684;2023-04-24T13:49:34;12.20;99.90
37874;DHT22;23709;48.078;11.684;2023-04-24T13:52:07;12.20;99.90
37874;DHT22;23709;48.078;11.684;2023-04-24T13:54:39;12.00;99.90
37874;DHT22;23709;48.078;11.684;2023-04-24T13:57:11;11.80;99.90
37874;DHT22;23709;48.078;11.684;2023-04-24T13:59:45;11.70;99.90
37874;DHT22;23709;48.078;11.684;2023-04-24T14:02:17;11.90;97.70
37874;DHT22;23709;48.078;11.684;2023-04-24T14:04:49;12.00;98.50
37874;DHT22;23709;48.078;11.684;2023-04-24T14:07:22;12.00;99.90
37874;DHT22;23709;48.078;11.684;2023-04-24T14:09:54;12.00;99.90
37874;DHT22;23709;48.078;11.684;2023-04-24T14:12:27;12.30;99.90
37874;DHT22;23709;48.078;11.684;2023-04-24T14:14:59;12.60;97.90
37874;DHT22;23709;48.078;11.684;2023-04-24T14:17:33;12.60;97.30
37874;DHT22;23709;48.078;11.684;2023-04-24T14:20:07;12.50;95.60
37874;DHT22;23709;48.078;11.684;2023-04-24T14:22:39;12.80;97.10
37874;DHT22;23709;48.078;11.684;2023-04-24T14:25:11;13.20;94.30
37874;DHT22;23709;48.078;11.684;2023-04-24T14:27:43;13.60;94.00
37874;DHT22;23709;48.078;11.684;2023-04-24T14:30:15;13.70;93.40
37874;DHT22;23709;48.078;11.684;2023-04-24T14:32:48;13.80;90.80
37874;DHT22;23709;48.078;11.684;2023-04-24T14:35:21;13.80;89.00
37874;DHT22;23709;48.078;11.684;2023-04-24T14:37:54;13.50;87.00
37874;DHT22;23709;48.078;11.684;2023-04-24T14:40:26;13.20;89.10
37874;DHT22;23709;48.078;11.684;2023-04-24T14:43:02;13.10;90.80
37874;DHT22;23709;48.078;11.684;2023-04-24T14:45:34;13.10;91.00
37874;DHT22;23709;48.078;11.684;2023-04-24T14:48:07;13.20;90.20
37874;DHT22;23709;48.078;11.684;2023-04-24T14:50:40;13.10;81.50
37874;DHT22;23709;48.078;11.684;2023-04-24T14:53:14;13.30;79.40
37874;DHT22;23709;48.078;11.684;2023-04-24T14:55:46;13.40;79.50
37874;DHT22;23709;48.078;11.684;2023-04-24T14:58:18;13.50;76.40
37874;DHT22;23709;48.078;11.684;2023-04-24T15:00:50;13.40;73.60
37874;DHT22;23709;48.078;11.684;2023-04-24T15:03:23;13.30;74.20
37874;DHT22;23709;48.078;11.684;2023-04-24T15:05:57;13.10;74.70
37874;DHT22;23709;48.078;11.684;2023-04-24T15:08:29;13.00;74.10
37874;DHT22;23709;48.078;11.684;2023-04-24T15:11:01;13.10;75.20
37874;DHT22;23709;48.078;11.684;2023-04-24T15:13:33;13.20;74.70
37874;DHT22;23709;48.078;11.684;2023-04-24T15:16:05;13.40;75.80
37874;DHT22;23709;48.078;11.684;2023-04-24T15:18:38;13.60;72.90
37874;DHT22;23709;48.078;11.684;2023-04-24T15:21:10;13.70;71.20
37874;DHT22;23709;48.078;11.684;2023-04-24T15:23:44;13.90;71.00
37874;DHT22;23709;48.078;11.684;2023-04-24T15:26:18;13.90;68.80
37874;DHT22;23709;48.078;11.684;2023-04-24T15:28:51;13.70;69.80
37874;DHT22;23709;48.078;11.684;2023-04-24T15:31:23;13.70;71.00
37874;DHT22;23709;48.078;11.684;2023-04-24T15:33:56;13.60;71.60
37874;DHT22;23709;48.078;11.684;2023-04-24T15:36:28;13.60;71.30
37874;DHT22;23709;48.078;11.684;2023-04-24T15:39:02;13.30;69.20
37874;DHT22;23709;48.078;11.684;2023-04-24T15:41:37;13.10;69.70
37874;DHT22;23709;48.078;11.684;2023-04-24T15:44:10;13.10;70.10
37874;DHT22;23709;48.078;11.684;2023-04-24T15:46:42;13.00;70.00
37874;DHT22;23709;48.078;11.684;2023-04-24T15:49:14;12.90;68.40
37874;DHT22;23709;48.078;11.684;2023-04-24T15:51:47;13.10;69.80
37874;DHT22;23709;48.078;11.684;2023-04-24T15:54:19;13.20;68.40
37874;DHT22;23709;48.078;11.684;2023-04-24T15:56:51;13.30;69.50
37874;DHT22;23709;48.078;11.684;2023-04-24T15:59:23;13.20;68.70
37874;DHT22;23709;48.078;11.684;2023-04-24T16:01:55;13.20;69.30
37874;DHT22;23709;48.078;11.684;2023-04-24T16:04:28;13.10;68.20
37874;DHT22;23709;48.078;11.684;2023-04-24T16:07:01;13.00;68.80